Time;durP1;ratioP1;P1;durP2;ratioP2;P2;SDS_P1;SDS_P2;PMS_P1;PMS_P2;Temp;Humidity;BMP_temperature;BMP_pressure;BME280_temperature;BME280_humidity;BME280_pressure;Samples;Min_cycle;Max_cycle;Signal;HPM_P1;HPM_P2
2023/01/24 00:00:11;;;;;;;56.80;34.75;;;2.80;99.90;;;;;;5091831;28;20044;-70
2023/01/24 00:02:37;;;;;;;59.72;35.92;;;2.80;99.90;;;;;;5091904;28;20048;-70
2023/01/24 00:05:03;;;;;;;53.97;35.50;;;2.80;99.90;;;;;;5089301;28;20394;-70
2023/01/24 00:07:29;;;;;;;51.78;35.80;;;2.80;99.90;;;;;;5088297;28;20064;-70
2023/01/24 00:10:01;;;;;;;57.40;33.33;;;2.80;99.90;;;;;;5088612;28;20032;-70
2023/01/24 00:12:28;;;;;;;57.42;36.88;;;2.80;99.90;;;;;;5087287;28;20047;-70
2023/01/24 00:14:54;;;;;;;57.40;36.38;;;2.80;99.90;;;;;;5100752;28;20444;-70
2023/01/24 00:17:20;;;;;;;59.13;36.38;;;2.80;99.90;;;;;;5093525;28;20138;-70
2023/01/24 00:19:46;;;;;;;60.28;36.70;;;2.70;99.90;;;;;;5092231;28;20409;-70
2023/01/24 00:22:11;;;;;;;57.90;36.85;;;2.70;99.90;;;;;;5087017;28;20044;-70
2023/01/24 00:24:37;;;;;;;57.35;36.42;;;2.80;99.90;;;;;;5093503;28;20040;-70
2023/01/24 00:27:03;;;;;;;60.00;37.65;;;2.70;99.90;;;;;;5091583;28;20114;-70
2023/01/24 00:29:28;;;;;;;56.78;35.15;;;2.70;99.90;;;;;;5094552;28;20047;-70
2023/01/24 00:31:54;;;;;;;61.30;36.03;;;2.70;99.90;;;;;;5102695;28;20104;-70
2023/01/24 00:34:20;;;;;;;24.98;11.27;;;2.70;99.90;;;;;;5109183;28;20051;-70
2023/01/24 00:36:46;;;;;;;64.40;36.97;;;2.70;99.90;;;;;;5093732;28;20055;-70
2023/01/24 00:39:11;;;;;;;58.10;35.58;;;2.70;99.90;;;;;;5091639;28;20028;-70
2023/01/24 00:41:37;;;;;;;60.55;36.85;;;2.70;99.90;;;;;;5090854;28;20044;-70
2023/01/24 00:44:03;;;;;;;60.15;38.75;;;2.70;99.90;;;;;;5091264;28;20127;-69
2023/01/24 00:46:28;;;;;;;57.97;36.42;;;2.70;99.90;;;;;;5107415;28;20044;-70
2023/01/24 00:48:54;;;;;;;56.47;38.55;;;2.70;99.90;;;;;;5105499;28;20047;-70
2023/01/24 00:51:20;;;;;;;61.35;39.67;;;2.70;99.90;;;;;;5104352;28;20413;-70
2023/01/24 00:53:45;;;;;;;52.20;35.67;;;2.70;99.90;;;;;;5100697;28;20860;-70
2023/01/24 00:56:11;;;;;;;24.70;14.93;;;2.70;99.90;;;;;;5095085;28;20135;-70
2023/01/24 00:58:36;;;;;;;62.13;36.80;;;2.70;99.90;;;;;;5098823;28;20649;-70
2023/01/24 01:01:03;;;;;;;59.55;37.63;;;2.70;99.90;;;;;;5081323;28;20036;-70
2023/01/24 01:03:29;;;;;;;57.05;36.55;;;2.70;99.90;;;;;;5098613;28;20504;-69
2023/01/24 01:06:06;;;;;;;61.03;40.47;;;2.70;99.90;;;;;;5090660;28;20040;-70
2023/01/24 01:08:33;;;;;;;52.00;35.30;;;2.70;99.90;;;;;;5097160;28;20044;-70
2023/01/24 01:10:59;;;;;;;51.10;33.88;;;2.70;99.90;;;;;;5096742;28;20055;-70
2023/01/24 01:13:26;;;;;;;55.63;35.38;;;2.70;99.90;;;;;;5093938;28;20357;-70
2023/01/24 01:15:51;;;;;;;56.92;36.00;;;2.70;99.90;;;;;;5109814;28;20052;-70
2023/01/24 01:18:17;;;;;;;63.15;37.30;;;2.70;99.90;;;;;;5093093;28;20120;-70
2023/01/24 01:20:53;;;;;;;59.97;38.63;;;2.70;99.90;;;;;;5108840;28;20051;-70
2023/01/24 01:23:19;;;;;;;63.63;36.85;;;2.70;99.90;;;;;;5094131;28;20093;-70
2023/01/24 01:25:44;;;;;;;62.75;36.85;;;2.70;99.90;;;;;;5095394;28;20047;-70
2023/01/24 01:28:10;;;;;;;50.00;32.38;;;2.70;99.90;;;;;;5105520;28;20040;-70
2023/01/24 01:30:36;;;;;;;50.97;32.85;;;2.70;99.90;;;;;;5104684;28;20051;-70
2023/01/24 01:33:02;;;;;;;45.25;32.10;;;2.70;99.90;;;;;;5097771;28;20036;-70
2023/01/24 01:35:27;;;;;;;48.97;32.42;;;2.70;99.90;;;;;;5100750;28;20496;-70
2023/01/24 01:37:53;;;;;;;48.10;32.55;;;2.70;99.90;;;;;;5107510;28;20463;-70
2023/01/24 01:40:19;;;;;;;51.72;34.90;;;2.70;99.90;;;;;;5103482;28;20408;-70
2023/01/24 01:42:50;;;;;;;44.67;31.02;;;2.70;99.90;;;;;;5096942;28;20071;-70
2023/01/24 01:45:36;;;;;;;26.70;13.93;;;2.70;99.90;;;;;;5097408;28;20050;-70
2023/01/24 01:48:23;;;;;;;49.13;32.97;;;2.70;99.90;;;;;;5105714;28;20109;-70
2023/01/24 01:51:25;;;;;;;57.38;34.65;;;2.80;99.90;;;;;;5085240;28;20052;-70
2023/01/24 01:54:00;;;;;;;55.63;32.47;;;2.70;99.90;;;;;;5086314;28;20143;-70
2023/01/24 01:56:55;;;;;;;52.20;33.65;;;2.70;99.90;;;;;;5103605;28;20106;-70
2023/01/24 01:59:28;;;;;;;53.28;33.33;;;2.80;99.90;;;;;;5102927;28;20060;-70
2023/01/24 02:01:56;;;;;;;53.83;34.15;;;2.70;99.90;;;;;;5101395;28;20051;-70
2023/01/24 02:04:27;;;;;;;56.45;35.40;;;2.70;99.90;;;;;;5095070;28;20509;-70
2023/01/24 02:07:16;;;;;;;47.35;30.88;;;2.70;99.90;;;;;;5089210;28;20044;-70
2023/01/24 02:09:43;;;;;;;49.08;30.90;;;2.70;99.90;;;;;;5104139;28;20154;-70
2023/01/24 02:12:26;;;;;;;56.17;33.85;;;2.70;99.90;;;;;;5101638;28;20075;-70
2023/01/24 02:17:41;;;;;;;58.10;34.80;;;2.70;99.90;;;;;;5090144;28;20620;-70
2023/01/24 02:20:20;;;;;;;54.10;34.58;;;2.70;99.90;;;;;;5099217;28;20131;-70
2023/01/24 02:23:25;;;;;;;61.08;34.97;;;2.80;99.90;;;;;;5088627;28;20048;-70
2023/01/24 02:26:11;;;;;;;53.85;34.55;;;2.70;99.90;;;;;;5095867;28;20044;-70
2023/01/24 02:28:38;;;;;;;49.65;32.83;;;2.70;99.90;;;;;;5102733;28;20100;-70
2023/01/24 02:31:04;;;;;;;56.13;33.60;;;2.70;99.90;;;;;;5099715;28;20138;-70
2023/01/24 02:33:31;;;;;;;48.90;32.85;;;2.70;99.90;;;;;;5092723;28;20052;-70
2023/01/24 02:36:34;;;;;;;42.67;25.92;;;2.70;99.90;;;;;;5099492;28;20048;-70
2023/01/24 02:39:02;;;;;;;40.38;26.00;;;2.70;99.90;;;;;;5063487;28;20071;-70
2023/01/24 02:41:55;;;;;;;40.40;27.23;;;2.70;99.90;;;;;;5096810;28;20115;-70
2023/01/24 02:44:42;;;;;;;44.38;26.38;;;2.80;99.90;;;;;;5084660;28;20721;-70
2023/01/24 02:47:08;;;;;;;42.28;28.20;;;2.80;99.90;;;;;;5096489;28;20108;-70
2023/01/24 02:49:34;;;;;;;48.53;27.42;;;2.80;99.90;;;;;;5099612;28;20035;-70
2023/01/24 02:54:44;;;;;;;42.42;28.13;;;2.80;99.90;;;;;;5102296;28;20044;-69
2023/01/24 02:59:54;;;;;;;38.90;27.25;;;2.70;99.90;;;;;;5095077;28;20480;-70
2023/01/24 03:02:20;;;;;;;38.00;26.42;;;2.80;99.90;;;;;;5107649;28;20092;-70
2023/01/24 03:04:46;;;;;;;37.17;25.55;;;2.80;99.90;;;;;;5098205;28;20518;-70
2023/01/24 03:07:12;;;;;;;36.20;25.42;;;2.90;99.90;;;;;;5088930;28;20055;-70
2023/01/24 03:09:45;;;;;;;32.90;25.05;;;2.80;99.90;;;;;;5099541;28;21731;-70
2023/01/24 03:36:53;;;;;;;36.92;26.20;;;2.80;99.90;;;;;;5087923;28;20048;-69
2023/01/24 03:42:03;;;;;;;46.30;28.77;;;2.70;99.90;;;;;;5093456;28;20044;-70
2023/01/24 03:44:30;;;;;;;40.95;26.50;;;2.70;99.90;;;;;;5099635;28;20047;-70
2023/01/24 03:46:55;;;;;;;51.97;29.00;;;2.70;99.90;;;;;;5091257;28;20040;-70
2023/01/24 03:54:51;;;;;;;39.33;28.13;;;2.70;99.90;;;;;;5101919;28;20047;-70
2023/01/24 03:57:16;;;;;;;18.58;8.80;;;2.70;99.90;;;;;;5099008;28;20130;-70
2023/01/24 03:59:42;;;;;;;31.90;22.27;;;2.70;99.90;;;;;;5097299;28;20048;-70
2023/01/24 04:02:08;;;;;;;37.00;23.15;;;2.70;99.90;;;;;;5095087;28;20079;-70
2023/01/24 04:07:18;;;;;;;31.60;21.75;;;2.70;99.90;;;;;;5101719;28;20051;-70
2023/01/24 04:09:44;;;;;;;37.15;22.92;;;2.70;99.90;;;;;;5106247;28;20150;-70
2023/01/24 04:12:10;;;;;;;34.55;24.67;;;2.70;99.90;;;;;;5092948;28;20043;-69
2023/01/24 04:14:35;;;;;;;35.95;24.67;;;2.70;99.90;;;;;;5107486;28;20393;-70
2023/01/24 04:17:02;;;;;;;37.28;25.05;;;2.70;99.90;;;;;;5107172;28;20047;-70
2023/01/24 04:19:28;;;;;;;41.97;25.88;;;2.70;99.90;;;;;;5102150;28;20028;-70
2023/01/24 04:21:53;;;;;;;35.20;24.90;;;2.70;99.90;;;;;;5100355;28;20092;-70
2023/01/24 04:24:19;;;;;;;34.53;24.52;;;2.70;99.90;;;;;;5087607;28;20067;-71
2023/01/24 04:26:45;;;;;;;39.80;25.20;;;2.70;99.90;;;;;;5097237;28;20031;-70
2023/01/24 04:29:10;;;;;;;33.10;25.08;;;2.70;99.90;;;;;;5099661;28;20097;-70
2023/01/24 04:31:36;;;;;;;35.10;23.67;;;2.70;99.90;;;;;;5092736;28;20044;-70
2023/01/24 04:34:02;;;;;;;44.10;25.48;;;2.70;99.90;;;;;;5098714;28;20052;-72
2023/01/24 04:36:27;;;;;;;42.55;25.08;;;2.70;99.90;;;;;;5088023;28;20052;-70
2023/01/24 04:38:55;;;;;;;38.35;25.13;;;2.70;99.90;;;;;;5092835;28;20139;-70
2023/01/24 04:41:20;;;;;;;41.90;25.40;;;2.70;99.90;;;;;;5098379;28;20077;-70
2023/01/24 04:43:46;;;;;;;39.53;24.02;;;2.70;99.90;;;;;;5096984;28;20139;-70
2023/01/24 04:46:12;;;;;;;37.03;24.20;;;2.70;99.90;;;;;;5101029;28;20050;-70
2023/01/24 04:48:38;;;;;;;36.42;24.58;;;2.70;99.90;;;;;;5107893;28;20112;-70
2023/01/24 04:51:04;;;;;;;38.35;22.08;;;2.70;99.90;;;;;;5094308;28;20040;-70
2023/01/24 04:53:30;;;;;;;29.98;21.20;;;2.70;99.90;;;;;;5094378;28;20046;-70
2023/01/24 04:56:01;;;;;;;27.08;19.48;;;2.70;99.90;;;;;;5095673;28;20048;-70
2023/01/24 04:58:26;;;;;;;30.00;19.40;;;2.70;99.90;;;;;;5092608;28;20044;-70
2023/01/24 05:00:53;;;;;;;31.50;19.52;;;2.70;99.90;;;;;;5107189;28;20185;-70
2023/01/24 05:03:19;;;;;;;25.98;18.73;;;2.70;99.90;;;;;;5090638;28;20094;-70
2023/01/24 05:05:49;;;;;;;30.05;19.42;;;2.70;99.90;;;;;;5097350;28;20071;-70
2023/01/24 05:08:14;;;;;;;26.88;19.38;;;2.70;99.90;;;;;;5088897;28;20156;-70
2023/01/24 05:10:40;;;;;;;11.65;5.72;;;2.70;99.90;;;;;;5089018;28;20518;-70
2023/01/24 05:13:06;;;;;;;26.17;18.98;;;2.60;99.90;;;;;;5109687;28;20126;-70
2023/01/24 05:15:31;;;;;;;29.02;19.63;;;2.60;99.90;;;;;;5097714;28;20046;-70
2023/01/24 05:17:57;;;;;;;28.60;17.88;;;2.70;99.90;;;;;;5105450;28;20036;-70
2023/01/24 05:20:24;;;;;;;27.00;19.27;;;2.60;99.90;;;;;;5105431;28;20408;-70
2023/01/24 05:22:49;;;;;;;28.17;19.60;;;2.70;99.90;;;;;;5104763;28;20043;-70
2023/01/24 05:25:16;;;;;;;30.27;19.55;;;2.60;99.90;;;;;;5107233;28;20404;-70
2023/01/24 05:27:42;;;;;;;26.88;19.77;;;2.60;99.90;;;;;;5105047;27;20039;-70
2023/01/24 05:30:09;;;;;;;28.23;20.02;;;2.60;99.90;;;;;;5108517;28;20508;-70
2023/01/24 05:32:34;;;;;;;28.13;19.67;;;2.70;99.90;;;;;;5110469;28;20035;-70
2023/01/24 05:35:00;;;;;;;34.75;19.65;;;2.60;99.90;;;;;;5107732;28;20055;-70
2023/01/24 05:37:26;;;;;;;26.52;20.02;;;2.60;99.90;;;;;;5105620;28;20485;-70
2023/01/24 05:39:51;;;;;;;26.02;18.38;;;2.60;99.90;;;;;;5103745;28;20496;-70
2023/01/24 05:42:17;;;;;;;27.45;18.70;;;2.60;99.90;;;;;;5102284;27;20051;-70
2023/01/24 05:44:44;;;;;;;29.40;21.38;;;2.60;99.90;;;;;;5102806;28;20051;-70
2023/01/24 05:47:10;;;;;;;28.23;19.58;;;2.60;99.90;;;;;;5086505;28;20056;-70
2023/01/24 05:49:36;;;;;;;25.45;17.35;;;2.60;99.90;;;;;;5101343;28;20048;-70
2023/01/24 05:52:02;;;;;;;26.20;19.30;;;2.60;99.90;;;;;;5096600;28;20082;-70
2023/01/24 05:54:27;;;;;;;27.50;17.88;;;2.60;99.90;;;;;;5108100;28;20043;-70
2023/01/24 05:56:53;;;;;;;25.85;19.17;;;2.60;99.90;;;;;;5094885;28;20645;-70
2023/01/24 05:59:19;;;;;;;30.90;20.13;;;2.60;99.90;;;;;;5098407;28;20044;-70
2023/01/24 06:01:44;;;;;;;25.27;19.02;;;2.60;99.90;;;;;;5103423;28;20040;-71
2023/01/24 06:04:10;;;;;;;28.92;19.98;;;2.60;99.90;;;;;;5093869;28;20511;-70
2023/01/24 06:06:36;;;;;;;23.77;8.15;;;2.60;99.90;;;;;;5097936;28;20044;-71
2023/01/24 06:09:01;;;;;;;29.23;19.70;;;2.60;99.90;;;;;;5099521;28;20111;-72
2023/01/24 06:11:28;;;;;;;32.00;20.70;;;2.60;99.90;;;;;;5100913;28;20118;-70
2023/01/24 06:13:55;;;;;;;29.55;19.35;;;2.60;99.90;;;;;;5107481;28;20054;-71
2023/01/24 06:16:23;;;;;;;24.88;17.55;;;2.60;99.90;;;;;;5096468;28;20181;-70
2023/01/24 06:18:50;;;;;;;28.42;19.40;;;2.60;99.90;;;;;;5090576;28;20085;-70
2023/01/24 06:21:43;;;;;;;28.23;18.25;;;2.60;99.90;;;;;;5099046;28;20051;-70
2023/01/24 06:24:15;;;;;;;28.70;18.88;;;2.60;99.90;;;;;;5108697;28;20044;-70
2023/01/24 06:26:41;;;;;;;27.65;19.55;;;2.60;99.90;;;;;;5102884;28;20792;-71
2023/01/24 06:29:09;;;;;;;32.92;20.33;;;2.50;99.90;;;;;;5103600;28;20118;-70
2023/01/24 06:31:46;;;;;;;26.45;19.73;;;2.50;99.90;;;;;;5104410;28;20055;-70
2023/01/24 06:34:25;;;;;;;28.48;19.73;;;2.50;99.90;;;;;;5120446;27;20086;-71
2023/01/24 06:37:22;;;;;;;29.35;19.05;;;2.50;99.90;;;;;;5090466;28;20130;-70
2023/01/24 06:39:51;;;;;;;29.90;21.40;;;2.50;99.90;;;;;;5096346;28;20055;-71
2023/01/24 06:42:21;;;;;;;28.65;19.98;;;2.50;99.90;;;;;;5097415;27;20087;-70
2023/01/24 06:44:47;;;;;;;28.70;19.95;;;2.50;99.90;;;;;;5095033;28;20054;-71
2023/01/24 06:47:14;;;;;;;30.45;20.95;;;2.50;99.90;;;;;;5098157;28;20048;-70
2023/01/24 06:49:41;;;;;;;34.87;20.23;;;2.50;99.90;;;;;;5082569;28;20604;-70
2023/01/24 06:52:07;;;;;;;33.03;19.80;;;2.50;99.90;;;;;;5099700;28;20332;-71
2023/01/24 06:54:34;;;;;;;32.22;20.23;;;2.50;99.90;;;;;;5106363;28;20046;-70
2023/01/24 06:57:00;;;;;;;30.10;21.00;;;2.50;99.90;;;;;;5100210;28;20914;-71
2023/01/24 06:59:25;;;;;;;31.60;21.30;;;2.50;99.90;;;;;;5103016;28;20127;-71
2023/01/24 07:01:51;;;;;;;29.25;19.83;;;2.50;99.90;;;;;;5098688;28;20512;-71
2023/01/24 07:04:17;;;;;;;30.02;18.92;;;2.50;99.90;;;;;;5090857;28;20036;-71
2023/01/24 07:06:43;;;;;;;27.38;20.20;;;2.50;99.90;;;;;;5099164;28;20051;-70
2023/01/24 07:09:10;;;;;;;27.35;19.73;;;2.40;99.90;;;;;;5105190;28;20108;-70
2023/01/24 07:11:36;;;;;;;28.23;20.75;;;2.40;99.90;;;;;;5105191;28;20039;-71
2023/01/24 07:14:02;;;;;;;31.65;20.67;;;2.40;99.90;;;;;;5100507;28;20760;-70
2023/01/24 07:16:27;;;;;;;31.27;20.80;;;2.40;99.90;;;;;;5099456;28;20114;-70
2023/01/24 07:18:53;;;;;;;13.35;5.93;;;2.40;99.90;;;;;;5096959;28;20036;-70
2023/01/24 07:21:19;;;;;;;31.85;20.20;;;2.40;99.90;;;;;;5099216;28;20082;-70
2023/01/24 07:23:47;;;;;;;30.88;20.98;;;2.40;99.90;;;;;;5097647;28;20058;-70
2023/01/24 07:26:13;;;;;;;34.10;19.85;;;2.40;99.90;;;;;;5105149;28;20051;-70
2023/01/24 07:28:41;;;;;;;31.92;20.85;;;2.50;99.90;;;;;;5098882;28;20075;-70
2023/01/24 07:31:12;;;;;;;32.67;21.67;;;2.40;99.90;;;;;;5095463;28;20048;-70
2023/01/24 07:33:37;;;;;;;32.20;20.58;;;2.40;99.90;;;;;;5094450;28;20051;-70
2023/01/24 07:36:14;;;;;;;28.25;19.85;;;2.40;99.90;;;;;;5095010;28;20577;-70
2023/01/24 07:38:40;;;;;;;27.00;19.30;;;2.40;99.90;;;;;;5094506;28;20051;-70
2023/01/24 07:41:07;;;;;;;32.45;21.83;;;2.40;99.90;;;;;;5098118;28;20051;-70
2023/01/24 07:43:33;;;;;;;24.07;18.97;;;2.40;99.90;;;;;;5095914;28;20503;-71
2023/01/24 07:45:59;;;;;;;29.83;22.02;;;2.40;99.90;;;;;;5106924;28;20051;-71
2023/01/24 07:48:24;;;;;;;29.33;20.63;;;2.40;99.90;;;;;;5105475;28;20047;-71
2023/01/24 07:50:50;;;;;;;30.98;20.27;;;2.40;99.90;;;;;;5104042;28;20036;-71
2023/01/24 07:53:17;;;;;;;39.88;19.80;;;2.40;99.90;;;;;;5096099;28;20082;-70
2023/01/24 07:55:43;;;;;;;30.88;21.13;;;2.40;99.90;;;;;;5102267;28;20562;-71
2023/01/24 07:58:09;;;;;;;27.10;21.33;;;2.40;99.90;;;;;;5105960;28;20040;-70
2023/01/24 08:00:35;;;;;;;30.83;21.17;;;2.40;99.90;;;;;;5101605;28;20036;-70
2023/01/24 08:03:00;;;;;;;33.58;22.52;;;2.40;99.90;;;;;;5118410;27;20865;-71
2023/01/24 08:05:26;;;;;;;35.63;21.13;;;2.40;99.90;;;;;;5099143;28;20073;-70
2023/01/24 08:07:53;;;;;;;31.20;21.88;;;2.40;99.90;;;;;;5096119;28;20035;-70
2023/01/24 08:10:21;;;;;;;28.85;19.67;;;2.40;99.90;;;;;;5095021;28;20044;-70
2023/01/24 08:12:50;;;;;;;30.10;21.53;;;2.40;99.90;;;;;;5100030;28;20039;-71
2023/01/24 08:15:16;;;;;;;33.03;21.20;;;2.40;99.90;;;;;;5101959;28;21561;-70
2023/01/24 08:17:42;;;;;;;14.77;5.70;;;2.40;99.90;;;;;;5095573;28;20071;-71
2023/01/24 08:20:08;;;;;;;32.70;22.33;;;2.40;99.90;;;;;;5095906;28;20070;-71
2023/01/24 08:22:41;;;;;;;30.85;21.20;;;2.40;99.90;;;;;;5097648;28;20036;-70
2023/01/24 08:25:08;;;;;;;31.55;22.08;;;2.40;99.90;;;;;;5102157;28;20040;-71
2023/01/24 08:27:34;;;;;;;33.33;21.15;;;2.40;99.90;;;;;;5088785;28;20117;-70
2023/01/24 08:30:00;;;;;;;28.00;19.08;;;2.40;99.90;;;;;;5091330;28;20060;-70
2023/01/24 08:32:25;;;;;;;28.50;20.38;;;2.40;99.90;;;;;;5099269;28;20048;-71
2023/01/24 08:34:51;;;;;;;30.85;21.95;;;2.40;99.90;;;;;;5103859;28;20478;-70
2023/01/24 08:37:17;;;;;;;29.83;20.65;;;2.40;99.90;;;;;;5096942;28;20125;-70
2023/01/24 08:39:43;;;;;;;31.95;20.83;;;2.50;99.90;;;;;;5100579;28;20036;-70
2023/01/24 08:42:09;;;;;;;36.03;22.85;;;2.40;99.90;;;;;;5096332;28;20036;-71
2023/01/24 08:44:35;;;;;;;32.58;20.85;;;2.50;99.90;;;;;;5108082;28;20098;-70
2023/01/24 08:47:01;;;;;;;29.42;20.73;;;2.50;99.90;;;;;;5100154;28;20074;-71
2023/01/24 08:49:27;;;;;;;33.67;21.88;;;2.50;99.90;;;;;;5089896;28;20420;-71
2023/01/24 08:51:58;;;;;;;31.15;21.65;;;2.50;99.90;;;;;;5098022;28;20114;-71
2023/01/24 08:54:28;;;;;;;34.70;22.02;;;2.50;99.90;;;;;;5111371;28;20052;-70
2023/01/24 08:56:55;;;;;;;26.02;21.25;;;2.40;99.90;;;;;;5096998;28;20513;-71
2023/01/24 08:59:21;;;;;;;31.65;21.88;;;2.50;99.90;;;;;;5110489;28;20127;-70
2023/01/24 09:01:46;;;;;;;32.22;21.45;;;2.50;99.90;;;;;;5107822;28;20048;-70
2023/01/24 09:04:12;;;;;;;32.95;21.85;;;2.50;99.90;;;;;;5101002;28;20456;-71
2023/01/24 09:06:38;;;;;;;31.30;22.08;;;2.50;99.90;;;;;;5106226;28;20040;-70
2023/01/24 09:09:06;;;;;;;25.33;20.52;;;2.50;99.90;;;;;;5105683;28;20035;-71
2023/01/24 09:11:32;;;;;;;31.90;21.30;;;2.50;99.90;;;;;;5106704;28;20052;-70
2023/01/24 09:13:57;;;;;;;31.73;23.35;;;2.50;99.90;;;;;;5105605;28;20040;-70
2023/01/24 09:16:24;;;;;;;33.00;22.90;;;2.50;99.90;;;;;;5109062;28;20059;-70
2023/01/24 09:18:51;;;;;;;31.83;19.90;;;2.50;99.90;;;;;;5106681;28;20066;-70
2023/01/24 09:21:17;;;;;;;32.50;23.13;;;2.50;99.90;;;;;;5087205;28;20130;-70
2023/01/24 09:23:43;;;;;;;29.38;20.73;;;2.50;99.90;;;;;;5104780;28;20056;-71
2023/01/24 09:26:09;;;;;;;30.73;21.90;;;2.50;99.90;;;;;;5105640;28;20096;-70
2023/01/24 09:28:34;;;;;;;32.35;21.48;;;2.50;99.90;;;;;;5112128;27;20039;-70
2023/01/24 09:31:01;;;;;;;31.95;22.08;;;2.50;99.90;;;;;;5105842;28;20040;-70
2023/01/24 09:33:27;;;;;;;30.60;20.70;;;2.60;99.90;;;;;;5100155;27;20043;-70
2023/01/24 09:35:56;;;;;;;30.77;21.73;;;2.50;99.90;;;;;;5102070;28;20066;-70
2023/01/24 09:38:23;;;;;;;32.80;22.05;;;2.50;99.90;;;;;;5098683;28;20039;-71
2023/01/24 09:41:12;;;;;;;29.60;21.27;;;2.50;99.90;;;;;;5104193;28;20504;-70
2023/01/24 09:43:58;;;;;;;30.95;22.40;;;2.60;99.90;;;;;;5071274;28;20101;-70
2023/01/24 09:46:32;;;;;;;34.10;22.48;;;2.50;99.90;;;;;;5093682;28;20046;-70
2023/01/24 09:49:27;;;;;;;32.15;21.75;;;2.50;99.90;;;;;;5107378;28;20051;-70
2023/01/24 09:51:53;;;;;;;28.77;20.65;;;2.50;99.90;;;;;;5068483;28;20048;-70
2023/01/24 09:54:43;;;;;;;30.63;19.67;;;2.60;99.90;;;;;;5104193;28;20130;-71
2023/01/24 09:57:21;;;;;;;15.13;8.70;;;2.60;99.90;;;;;;5107814;28;20655;-70
2023/01/24 09:59:52;;;;;;;;;;;2.60;99.90;;;;;;5097371;28;20116;-70
2023/01/24 10:02:20;;;;;;;32.90;21.85;;;2.50;99.90;;;;;;5104073;28;19927;-70
2023/01/24 10:04:47;;;;;;;31.55;21.85;;;2.60;99.90;;;;;;5100841;28;20040;-70
2023/01/24 10:07:40;;;;;;;31.73;21.27;;;2.60;99.90;;;;;;5099722;28;20627;-70
2023/01/24 10:10:41;;;;;;;31.48;21.17;;;2.60;99.90;;;;;;5108330;28;20051;-70
2023/01/24 10:13:10;;;;;;;30.60;21.33;;;2.60;99.90;;;;;;5088526;28;20063;-70
2023/01/24 10:15:54;;;;;;;;;;;2.60;99.90;;;;;;5105258;28;20060;-70
2023/01/24 10:18:31;;;;;;;30.88;22.10;;;2.60;99.90;;;;;;5104353;28;19973;-70
2023/01/24 10:21:16;;;;;;;30.27;21.33;;;2.60;99.90;;;;;;5096843;28;20052;-71
2023/01/24 10:23:46;;;;;;;30.58;22.05;;;2.60;99.90;;;;;;5103269;28;20130;-70
2023/01/24 10:26:18;;;;;;;29.73;19.90;;;2.70;99.90;;;;;;5097488;28;20171;-70
2023/01/24 10:28:49;;;;;;;32.15;21.98;;;2.70;99.90;;;;;;5109129;28;20475;-70
2023/01/24 10:31:25;;;;;;;30.92;22.15;;;2.70;99.90;;;;;;5102651;28;20085;-70
2023/01/24 10:34:17;;;;;;;28.02;21.08;;;2.70;99.90;;;;;;5102959;28;20094;-70
2023/01/24 10:36:49;;;;;;;31.17;23.20;;;2.70;99.90;;;;;;5086751;28;20052;-70
2023/01/24 10:39:14;;;;;;;32.17;23.05;;;2.70;99.90;;;;;;5101633;28;20036;-70
2023/01/24 10:41:40;;;;;;;33.75;21.33;;;2.70;99.90;;;;;;5102339;28;20514;-70
2023/01/24 10:44:06;;;;;;;30.13;21.63;;;2.80;99.90;;;;;;5104188;28;20043;-71
2023/01/24 10:46:48;;;;;;;31.15;21.58;;;2.70;99.90;;;;;;5107511;28;20052;-70
2023/01/24 10:49:47;;;;;;;33.20;22.40;;;2.80;99.90;;;;;;5103738;28;20088;-70
2023/01/24 10:52:18;;;;;;;28.60;21.65;;;2.80;99.90;;;;;;5101806;28;20081;-70
2023/01/24 10:54:57;;;;;;;33.35;23.27;;;2.70;99.90;;;;;;5078224;28;20051;-70
2023/01/24 10:57:39;;;;;;;33.60;23.63;;;2.80;99.90;;;;;;5100581;28;20711;-70
2023/01/24 11:00:14;;;;;;;28.85;21.23;;;2.70;99.90;;;;;;5108463;28;20112;-70
2023/01/24 11:02:40;;;;;;;29.90;21.55;;;2.80;99.90;;;;;;5106893;28;20517;-70
2023/01/24 11:05:10;;;;;;;32.95;23.33;;;2.70;99.90;;;;;;5101273;28;20451;-70
2023/01/24 11:07:40;;;;;;;33.10;22.98;;;2.80;99.90;;;;;;5106842;28;20047;-70
2023/01/24 11:10:47;;;;;;;30.75;22.02;;;2.80;99.90;;;;;;5098161;28;20584;-70
2023/01/24 11:13:45;;;;;;;34.42;23.48;;;2.80;99.90;;;;;;5048314;28;20056;-70
2023/01/24 11:16:16;;;;;;;40.80;23.50;;;2.70;99.90;;;;;;5060480;28;20051;-70
2023/01/24 11:18:54;;;;;;;31.80;22.67;;;2.70;99.90;;;;;;5104263;28;20043;-70
2023/01/24 11:21:21;;;;;;;29.63;21.52;;;2.70;99.90;;;;;;5103877;28;20713;-69
2023/01/24 11:24:04;;;;;;;30.85;22.88;;;2.70;99.90;;;;;;5097215;28;20036;-70
2023/01/24 11:26:31;;;;;;;35.38;22.98;;;2.80;99.90;;;;;;5101290;28;20039;-70
2023/01/24 11:29:07;;;;;;;29.92;20.98;;;2.80;99.90;;;;;;5097563;28;20071;-70
2023/01/24 11:31:39;;;;;;;30.23;21.08;;;2.80;99.90;;;;;;5092477;28;20066;-70
2023/01/24 11:34:23;;;;;;;29.40;21.98;;;2.80;99.90;;;;;;5092790;28;20068;-69
2023/01/24 11:37:43;;;;;;;35.17;23.70;;;2.80;99.90;;;;;;5108142;28;20040;-69
2023/01/24 11:40:28;;;;;;;32.65;22.60;;;2.80;99.90;;;;;;5041795;28;20045;-70
2023/01/24 11:43:20;;;;;;;33.10;22.52;;;2.80;99.90;;;;;;5027640;28;20041;-70
2023/01/24 11:46:14;;;;;;;32.03;22.65;;;2.90;99.90;;;;;;5059233;28;20048;-70
2023/01/24 11:49:04;;;;;;;31.70;21.80;;;2.90;99.90;;;;;;5097566;28;20047;-70
2023/01/24 11:52:05;;;;;;;32.53;20.52;;;2.90;99.90;;;;;;5101338;28;20040;-70
2023/01/24 11:54:49;;;;;;;34.20;23.33;;;2.90;99.90;;;;;;5100895;28;20059;-71
2023/01/24 11:57:34;;;;;;;33.58;22.92;;;2.90;99.90;;;;;;5104744;28;20091;-70
2023/01/24 12:00:23;;;;;;;31.38;21.75;;;2.90;99.90;;;;;;5101749;28;20525;-71
2023/01/24 12:03:23;;;;;;;31.85;21.65;;;2.90;99.90;;;;;;5101165;28;20044;-70
2023/01/24 12:05:59;;;;;;;32.13;22.15;;;2.90;99.90;;;;;;5108501;28;20055;-70
2023/01/24 12:08:38;;;;;;;28.15;22.13;;;2.90;99.90;;;;;;5097963;28;20552;-70
2023/01/24 12:11:17;;;;;;;28.80;21.88;;;2.90;99.90;;;;;;5107868;28;20047;-71
2023/01/24 12:14:16;;;;;;;33.75;23.08;;;2.90;99.90;;;;;;5092302;28;20051;-70
2023/01/24 12:17:02;;;;;;;31.02;23.23;;;2.90;99.90;;;;;;5104703;28;21159;-70
2023/01/24 12:19:39;;;;;;;30.02;9.23;;;2.80;99.90;;;;;;5088862;28;20463;-70
2023/01/24 12:22:22;;;;;;;32.53;22.60;;;2.80;99.90;;;;;;5091007;28;20056;-71
2023/01/24 12:25:03;;;;;;;32.28;22.55;;;2.80;99.90;;;;;;5078456;28;20040;-70
2023/01/24 12:27:35;;;;;;;33.15;21.85;;;2.90;99.90;;;;;;5089256;28;20513;-70
2023/01/24 12:30:06;;;;;;;30.95;22.75;;;2.90;99.90;;;;;;5097446;28;20120;-71
2023/01/24 12:33:11;;;;;;;30.25;21.55;;;2.80;99.90;;;;;;5093000;28;20059;-70
2023/01/24 12:35:44;;;;;;;33.45;22.23;;;2.80;99.90;;;;;;5087069;28;20505;-71
2023/01/24 12:38:41;;;;;;;31.77;22.63;;;2.80;99.90;;;;;;5088236;28;20052;-70
2023/01/24 12:41:13;;;;;;;35.60;23.13;;;2.80;99.90;;;;;;5086374;28;20048;-71
2023/01/24 12:44:05;;;;;;;31.77;21.67;;;2.70;99.90;;;;;;5092725;28;20087;-70
2023/01/24 12:47:06;;;;;;;31.35;22.15;;;2.70;99.90;;;;;;5095672;28;20052;-71
2023/01/24 12:49:31;;;;;;;17.92;8.00;;;2.80;99.90;;;;;;5097936;28;20119;-70
2023/01/24 12:52:24;;;;;;;32.70;22.08;;;2.80;99.90;;;;;;5102959;28;20185;-70
2023/01/24 12:55:13;;;;;;;34.83;23.15;;;2.80;99.90;;;;;;5093010;28;20722;-70
2023/01/24 12:57:49;;;;;;;33.97;23.88;;;2.80;99.90;;;;;;5093244;28;20077;-70
2023/01/24 13:00:20;;;;;;;31.17;21.75;;;2.80;99.90;;;;;;5093742;28;20052;-70
2023/01/24 13:03:07;;;;;;;34.95;23.10;;;2.80;99.90;;;;;;5099800;28;20050;-70
2023/01/24 13:05:45;;;;;;;33.15;22.80;;;2.80;99.90;;;;;;5095489;28;20052;-69
2023/01/24 13:08:47;;;;;;;29.45;22.27;;;2.80;99.90;;;;;;5096994;28;20569;-70
2023/01/24 13:11:23;;;;;;;35.83;24.52;;;2.80;99.90;;;;;;5093410;28;20055;-70
2023/01/24 13:14:17;;;;;;;29.40;21.55;;;2.80;99.90;;;;;;5094758;28;20604;-70
2023/01/24 13:16:52;;;;;;;34.42;24.08;;;2.80;99.90;;;;;;5073679;28;20048;-70
2023/01/24 13:19:42;;;;;;;34.42;23.27;;;2.80;99.90;;;;;;5100967;28;20070;-70
2023/01/24 13:22:41;;;;;;;33.08;23.08;;;2.80;99.90;;;;;;5105929;28;20048;-71
2023/01/24 13:25:22;;;;;;;31.48;22.52;;;2.70;99.90;;;;;;5091189;28;20048;-70
2023/01/24 13:28:05;;;;;;;33.05;22.05;;;2.70;99.90;;;;;;5103418;28;20056;-70
2023/01/24 13:30:48;;;;;;;35.72;24.02;;;2.60;99.90;;;;;;5104739;28;20393;-72
2023/01/24 13:33:19;;;;;;;33.80;23.95;;;2.60;99.90;;;;;;5097946;28;20423;-72
2023/01/24 13:35:51;;;;;;;32.78;23.25;;;2.60;99.90;;;;;;5099364;28;20044;-71
2023/01/24 13:38:29;;;;;;;30.80;21.98;;;2.60;99.90;;;;;;5106067;28;20043;-71
2023/01/24 13:41:02;;;;;;;35.55;24.30;;;2.60;99.90;;;;;;5102105;28;20043;-69
2023/01/24 13:43:37;;;;;;;35.33;24.75;;;2.70;99.90;;;;;;5101745;28;20040;-69
2023/01/24 13:46:04;;;;;;;35.13;24.65;;;2.60;99.90;;;;;;5108462;28;20118;-69